Daily Data: Northwest Mesa

   
11/22/17
Time         Wind Dir   Wind Spd  Wind Gust   Humidity       Temp  Dew Point   Barom SL  DailyRain   HourRain   RainRate
                            mph        mph          %         F         F         in         in         in      in/hr
12:00am           323          0          3         41       57.5       34.0      30.03       0.00       0.00      0.000
12:05am           323          0          0         41       57.3       33.8      30.03       0.00       0.00      0.000
12:10am           323          0          3         42       57.0       34.2      30.03       0.00       0.00      0.000
12:15am           323          0          1         42       56.9       34.1      30.03       0.00       0.00      0.000
12:20am           325          0          0         42       56.7       33.9      30.03       0.00       0.00      0.000
12:25am           323          0          0         42       56.5       33.7      30.03       0.00       0.00      0.000
12:30am           323          0          3         43       56.3       34.1      30.03       0.00       0.00      0.000
12:35am           323          0          1         44       56.3       34.7      30.03       0.00       0.00      0.000
12:40am           323          0          2         44       56.0       34.4      30.03       0.00       0.00      0.000
12:45am           323          0          1         44       55.9       34.3      30.03       0.00       0.00      0.000
12:50am           323          0          1         44       55.7       34.1      30.03       0.00       0.00      0.000
12:55am           323          0          0         44       55.6       34.1      30.03       0.00       0.00      0.000
1:00am            323          0          0         45       55.4       34.4      30.04       0.00       0.00      0.000
1:05am            323          0          1         45       55.1       34.2      30.04       0.00       0.00      0.000
1:10am            323          0          0         49       55.0       36.2      30.04       0.00       0.00      0.000
1:15am            323          0          0         47       55.0       35.2      30.03       0.00       0.00      0.000
1:20am            323          0          0         47       54.8       35.0      30.03       0.00       0.00      0.000
1:25am            323          0          0         47       54.7       34.9      30.03       0.00       0.00      0.000
1:30am            323          1          1         46       54.5       34.2      30.03       0.00       0.00      0.000
1:35am            323          0          3         47       54.4       34.6      30.03       0.00       0.00      0.000
1:40am            323          0          1         47       54.2       34.4      30.03       0.00       0.00      0.000
1:45am            323          0          0         48       54.1       34.9      30.03       0.00       0.00      0.000
1:50am            323          0          1         48       53.9       34.7      30.03       0.00       0.00      0.000
1:55am            323          1          2         48       53.8       34.6      30.03       0.00       0.00      0.000
2:00am            323          0          1         48       53.8       34.6      30.03       0.00       0.00      0.000
2:05am            323          0          0         48       53.6       34.4      30.03       0.00       0.00      0.000
2:10am            323          0          2         49       53.6       34.9      30.03       0.00       0.00      0.000
2:15am            323          0          0         49       53.5       34.8      30.03       0.00       0.00      0.000
2:20am            323          0          0         49       53.3       34.6      30.03       0.00       0.00      0.000
2:25am            323          0          0         49       53.3       34.6      30.03       0.00       0.00      0.000
2:30am            323          0          1         49       53.2       34.6      30.03       0.00       0.00      0.000
2:35am            323          2          2         49       53.3       34.6      30.03       0.00       0.00      0.000
2:40am            323          0          2         50       53.2       35.1      30.03       0.00       0.00      0.000
2:45am            323          0          1         50       53.1       35.0      30.04       0.00       0.00      0.000
2:50am            323          0          2         50       52.9       34.8      30.04       0.00       0.00      0.000
2:55am            322          0          0         50       52.8       34.7      30.04       0.00       0.00      0.000
3:00am            323          0          0         52       52.9       35.8      30.03       0.00       0.00      0.000
3:05am            323          0          0         51       52.8       35.2      30.03       0.00       0.00      0.000
3:10am            323          0          0         51       52.5       34.9      30.03       0.00       0.00      0.000
3:15am            323          0          0         52       52.2       35.1      30.04       0.00       0.00      0.000
3:20am            323          0          1         53       52.2       35.6      30.04       0.00       0.00      0.000
3:25am            323          0          0         53       52.0       35.4      30.04       0.00       0.00      0.000
3:30am            323          0          0         53       51.9       35.3      30.05       0.00       0.00      0.000
3:35am            323          0          0         53       51.7       35.1      30.05       0.00       0.00      0.000
3:40am            323          0          0         53       51.6       35.0      30.05       0.00       0.00      0.000
3:45am            323          0          0         54       51.4       35.3      30.05       0.00       0.00      0.000
3:50am            323          0          0         56       51.4       36.2      30.05       0.00       0.00      0.000
3:55am            323          0          0         56       51.4       36.2      30.05       0.00       0.00      0.000
4:00am            323          0          0         55       51.1       35.5      30.05       0.00       0.00      0.000
4:05am            323          0          0         55       51.0       35.4      30.05       0.00       0.00      0.000
4:10am            323          0          0         57       51.0       36.3      30.05       0.00       0.00      0.000
4:15am            323          0          0         56       51.0       35.9      30.06       0.00       0.00      0.000
4:20am            323          0          0         56       50.8       35.7      30.06       0.00       0.00      0.000
4:25am            323          0          2         56       51.0       35.9      30.06       0.00       0.00      0.000
4:30am            323          0          1         56       51.0       35.9      30.05       0.00       0.00      0.000
4:35am            323          0          2         55       51.1       35.5      30.05       0.00       0.00      0.000
4:40am            323          0          1         56       51.3       36.2      30.05       0.00       0.00      0.000
4:45am            323          0          0         56       51.3       36.2      30.05       0.00       0.00      0.000
4:50am            323          0          0         56       51.1       36.0      30.05       0.00       0.00      0.000
4:55am            323          0          0         56       51.0       35.9      30.05       0.00       0.00      0.000
5:00am            323          0          0         56       50.8       35.7      30.05       0.00       0.00      0.000
5:05am            323          0          0         56       50.7       35.6      30.05       0.00       0.00      0.000
5:10am            323          0          0         56       50.5       35.4      30.05       0.00       0.00      0.000
5:15am            323          0          0         56       50.4       35.3      30.06       0.00       0.00      0.000
5:20am            323          0          0         56       50.2       35.1      30.06       0.00       0.00      0.000
5:25am            323          0          0         56       50.1       35.0      30.06       0.00       0.00      0.000
5:30am            325          0          0         56       49.8       34.8      30.07       0.00       0.00      0.000
5:35am            323          0          0         56       49.8       34.8      30.07       0.00       0.00      0.000
5:40am            323          0          0         57       49.9       35.3      30.07       0.00       0.00      0.000
5:45am            323          0          0         57       49.9       35.3      30.07       0.00       0.00      0.000
5:50am            323          0          1         58       49.8       35.6      30.07       0.00       0.00      0.000
5:55am            323          0          0         58       49.9       35.7      30.07       0.00       0.00      0.000
6:00am            323          0          0         57       49.8       35.2      30.07       0.00       0.00      0.000
6:05am            323          0          0         57       49.6       35.0      30.07       0.00       0.00      0.000
6:10am            323          0          0         57       49.5       34.9      30.07       0.00       0.00      0.000
6:15am            323          0          0         57       49.5       34.9      30.08       0.00       0.00      0.000
6:20am            323          0          0         58       49.4       35.3      30.08       0.00       0.00      0.000
6:25am            323          0          0         58       49.4       35.3      30.08       0.00       0.00      0.000
6:30am            323          0          0         58       49.4       35.3      30.08       0.00       0.00      0.000
6:35am            323          0          0         58       49.2       35.1      30.08       0.00       0.00      0.000
6:40am            323          0          0         58       49.2       35.1      30.08       0.00       0.00      0.000
6:45am            323          0          0         59       49.1       35.4      30.08       0.00       0.00      0.000
6:50am            323          1          1         59       49.2       35.5      30.08       0.00       0.00      0.000
6:55am            323          0          1         58       49.4       35.3      30.08       0.00       0.00      0.000
7:00am            325          2          2         58       49.5       35.4      30.09       0.00       0.00      0.000
7:05am            325          0          2         57       49.9       35.3      30.09       0.00       0.00      0.000
7:10am            323          0          0         57       50.2       35.6      30.09       0.00       0.00      0.000
7:15am            323          0          0         57       50.2       35.6      30.10       0.00       0.00      0.000
7:20am            323          0          0         56       50.2       35.1      30.10       0.00       0.00      0.000
7:25am            323          0          0         56       50.2       35.1      30.10       0.00       0.00      0.000
7:30am            323          0          0         55       50.2       34.7      30.11       0.00       0.00      0.000
7:35am            323          0          0         55       50.4       34.9      30.11       0.00       0.00      0.000
7:40am            323          0          0         54       50.8       34.8      30.11       0.00       0.00      0.000
7:45am            323          0          0         54       51.0       35.0      30.11       0.00       0.00      0.000
7:50am            323          0          0         54       51.0       35.0      30.11       0.00       0.00      0.000
7:55am            323          0          2         54       51.6       35.5      30.11       0.00       0.00      0.000
8:00am            323          0          1         54       52.2       36.1      30.12       0.00       0.00      0.000
8:05am            323          0          0         53       52.2       35.6      30.12       0.00       0.00      0.000
8:10am            323          0          0         52       52.5       35.4      30.12       0.00       0.00      0.000
8:15am            323          0          0         51       53.3       35.7      30.13       0.00       0.00      0.000
8:20am            323          0          0         50       54.4       36.2      30.13       0.00       0.00      0.000
8:25am            323          0          0         48       54.7       35.4      30.13       0.00       0.00      0.000
8:30am            323          0          0         48       55.4       36.1      30.12       0.00       0.00      0.000
8:35am            323          1          2         46       56.7       36.2      30.12       0.00       0.00      0.000
8:40am            323          2          3         44       58.9       37.0      30.12       0.00       0.00      0.000
8:45am            323          1          3         40       61.0       36.5      30.12       0.00       0.00      0.000
8:50am            323          1          2         38       62.4       36.5      30.12       0.00       0.00      0.000
8:55am            323          1          3         37       63.5       36.8      30.12       0.00       0.00      0.000
9:00am            323          2          2         35       64.5       36.3      30.12       0.00       0.00      0.000
9:05am            323          0          2         32       65.8       35.1      30.12       0.00       0.00      0.000
9:10am            323          0          0         30       67.1       34.7      30.12       0.00       0.00      0.000
9:15am            323          0          0         31       68.6       36.8      30.12       0.00       0.00      0.000
9:20am            323          0          0         29       70.1       36.4      30.12       0.00       0.00      0.000
9:25am            323          0          1         27       71.3       35.6      30.12       0.00       0.00      0.000
9:30am            323          0          0         27       72.5       36.7      30.12       0.00       0.00      0.000
9:35am            323          0          0         25       73.5       35.6      30.12       0.00       0.00      0.000
9:40am            323          0          0         25       74.4       36.3      30.12       0.00       0.00      0.000
9:45am            323          0          0         24       75.8       36.5      30.11       0.00       0.00      0.000
9:50am            323          0          0         23       77.2       36.6      30.11       0.00       0.00      0.000
9:55am            323          0          0         23       77.6       36.9      30.11       0.00       0.00      0.000
10:00am           323          0          0         23       77.7       37.0      30.11       0.00       0.00      0.000
10:05am            80          3          4         22       78.3       36.4      30.11       0.00       0.00      0.000
10:10am           110          2          3         20       79.0       34.5      30.11       0.00       0.00      0.000
10:15am            71          1          2         19       79.8       33.9      30.11       0.00       0.00      0.000
10:20am            73          1          3         19       79.9       34.0      30.11       0.00       0.00      0.000
10:25am            82          0          3         18       80.3       33.0      30.11       0.00       0.00      0.000
10:30am            55          2          3         19       80.9       34.8      30.11       0.00       0.00      0.000
10:35am           130          0          5         19       81.1       35.0      30.11       0.00       0.00      0.000
10:40am           110          3          3         19       81.1       35.0      30.11       0.00       0.00      0.000
10:45am            73          5          5         19       81.1       35.0      30.11       0.00       0.00      0.000
10:50am            82          3          5         19       81.1       35.0      30.11       0.00       0.00      0.000
10:55am           141          2          5         18       81.1       33.6      30.11       0.00       0.00      0.000
11:00am           138          0          3         19       81.6       35.4      30.10       0.00       0.00      0.000
11:05am           140          0          5         17       82.0       32.9      30.10       0.00       0.00      0.000
11:10am           140          1          3         17       82.6       33.4      30.10       0.00       0.00      0.000
11:15am           140          1          6         17       83.0       33.7      30.10       0.00       0.00      0.000
11:20am           155          0          6         18       82.2       34.5      30.10       0.00       0.00      0.000
11:25am           160          0          6         18       81.8       34.2      30.10       0.00       0.00      0.000
11:30am           158          2          3         17       82.4       33.3      30.09       0.00       0.00      0.000
11:35am           158          1          3         16       82.8       32.1      30.09       0.00       0.00      0.000
11:40am           161          2          6         15       83.2       30.8      30.09       0.00       0.00      0.000
11:45am           161          0          3         15       83.6       31.1      30.08       0.00       0.00      0.000
11:50am           165          3          6         15       83.4       31.0      30.08       0.00       0.00      0.000
11:55am           168          3          5         15       83.8       31.3      30.08       0.00       0.00      0.000
12:00pm           168          2          4         15       83.6       31.1      30.07       0.00       0.00      0.000
12:05pm           167          0          6         15       83.6       31.1      30.07       0.00       0.00      0.000
12:10pm           167          2          2         14       84.1       29.8      30.07       0.00       0.00      0.000
12:15pm           168          2          3         14       85.1       30.6      30.06       0.00       0.00      0.000
12:20pm           168          2          5         14       84.7       30.3      30.06       0.00       0.00      0.000
12:25pm           167          1          5         14       84.3       30.0      30.06       0.00       0.00      0.000
12:30pm           168          1          2         14       84.9       30.4      30.05       0.00       0.00      0.000
12:35pm           167          3          6         14       85.7       31.1      30.05       0.00       0.00      0.000
12:40pm           169          2          6         15       85.5       32.6      30.05       0.00       0.00      0.000
12:45pm           169          2          6         14       85.5       30.9      30.05       0.00       0.00      0.000
12:50pm           171          1          3         14       86.1       31.4      30.05       0.00       0.00      0.000
12:55pm           169          0          3         14       86.7       31.9      30.05       0.00       0.00      0.000
1:00pm            171          3          3         14       87.4       32.4      30.04       0.00       0.00      0.000
1:05pm            171          3          3         14       87.6       32.6      30.04       0.00       0.00      0.000
1:10pm            158          5          7         14       86.5       31.7      30.04       0.00       0.00      0.000
1:15pm            174          2          6         14       86.1       31.4      30.03       0.00       0.00      0.000
1:20pm            226          2          5         14       86.5       31.7      30.03       0.00       0.00      0.000
1:25pm            184          1          3         14       87.2       32.3      30.03       0.00       0.00      0.000
1:30pm            172          2          3         14       87.6       32.6      30.02       0.00       0.00      0.000
1:35pm             89          1          3         14       88.2       33.0      30.02       0.00       0.00      0.000
1:40pm            130          0          6         14       87.6       32.6      30.02       0.00       0.00      0.000
1:45pm            128          1          3         14       87.6       32.6      30.01       0.00       0.00      0.000
1:50pm            133          5          5         13       88.2       31.2      30.01       0.00       0.00      0.000
1:55pm            151          0          5         14       88.0       32.9      30.01       0.00       0.00      0.000
2:00pm            137          1          3         13       88.6       31.5      30.01       0.00       0.00      0.000
2:05pm            133          0          3         13       88.8       31.7      30.01       0.00       0.00      0.000
2:10pm            133          0          1         14       89.3       33.9      30.01       0.00       0.00      0.000
2:15pm            133          1          1         13       90.1       32.7      30.00       0.00       0.00      0.000
2:20pm            133          1          2         12       90.7       31.2      30.00       0.00       0.00      0.000
2:25pm            133          3          3         12       90.5       31.0      30.00       0.00       0.00      0.000
2:30pm            133          1          3         12       89.9       30.6      30.00       0.00       0.00      0.000
2:35pm            131          3          4         12       89.3       30.1      30.00       0.00       0.00      0.000
2:40pm            136          0          3         12       89.0       29.9      30.00       0.00       0.00      0.000
2:45pm            134          2          2         12       89.5       30.2      30.00       0.00       0.00      0.000
2:50pm            133          0          2         12       89.7       30.4      30.00       0.00       0.00      0.000
2:55pm            133          1          4         12       89.9       30.6      30.00       0.00       0.00      0.000
3:00pm            133          1          3         13       89.9       32.5      29.99       0.00       0.00      0.000
3:05pm            133          0          3         13       89.3       32.1      29.99       0.00       0.00      0.000
3:10pm            133          2          3         13       89.0       31.8      29.99       0.00       0.00      0.000
3:15pm            134          0          3         13       88.8       31.7      29.99       0.00       0.00      0.000
3:20pm            134          0          2         12       89.0       29.9      29.99       0.00       0.00      0.000
3:25pm            137          3          3         12       89.7       30.4      29.99       0.00       0.00      0.000
3:30pm            157          5          8         13       88.6       31.5      29.99       0.00       0.00      0.000
3:35pm            184          1          6         13       88.2       31.2      29.99       0.00       0.00      0.000
3:40pm            189          3          3         13       88.6       31.5      29.99       0.00       0.00      0.000
3:45pm            193          1          3         13       89.0       31.8      29.99       0.00       0.00      0.000
3:50pm            193          2          3         13       88.8       31.7      29.99       0.00       0.00      0.000
3:55pm            193          0          2         13       88.6       31.5      29.99       0.00       0.00      0.000
4:00pm            193          1          2         12       89.5       30.2      29.99       0.00       0.00      0.000
4:05pm            193          1          4         12       89.7       30.4      29.99       0.00       0.00      0.000
4:10pm            193          1          3         13       89.3       32.1      29.99       0.00       0.00      0.000
4:15pm            193          0          3         13       89.0       31.8      29.99       0.00       0.00      0.000
4:20pm            193          0          3         13       88.8       31.7      29.99       0.00       0.00      0.000
4:25pm            193          0          3         14       88.8       33.5      29.99       0.00       0.00      0.000
4:30pm            193          1          2         13       88.6       31.5      29.99       0.00       0.00      0.000
4:35pm            193          0          2         14       88.6       33.4      29.99       0.00       0.00      0.000
4:40pm            193          2          3         14       88.4       33.2      29.99       0.00       0.00      0.000
4:45pm            193          1          3         14       87.6       32.6      29.99       0.00       0.00      0.000
4:50pm            193          0          2         15       87.4       34.1      29.99       0.00       0.00      0.000
4:55pm            193          0          0         15       87.2       34.0      29.99       0.00       0.00      0.000
5:00pm            193          0          0         15       86.7       33.6      29.99       0.00       0.00      0.000
5:05pm            193          0          0         16       86.3       34.9      29.99       0.00       0.00      0.000
5:10pm            193          0          0         17       85.3       35.6      29.99       0.00       0.00      0.000
5:15pm            193          0          0         17       84.1       34.6      30.00       0.00       0.00      0.000
5:20pm            193          0          0         19       82.4       36.0      30.00       0.00       0.00      0.000
5:25pm            193          0          0         19       80.9       34.8      30.00       0.00       0.00      0.000
5:30pm            193          0          0         20       79.6       35.0      30.00       0.00       0.00      0.000
5:35pm            195          0          0         20       78.6       34.2      30.00       0.00       0.00      0.000
5:40pm            193          0          0         21       77.9       34.9      30.00       0.00       0.00      0.000
5:45pm            193          0          0         22       77.4       35.6      30.01       0.00       0.00      0.000
5:50pm            193          0          0         22       76.7       35.0      30.01       0.00       0.00      0.000
5:55pm            193          0          0         23       76.0       35.6      30.01       0.00       0.00      0.000
6:00pm            193          0          0         23       75.3       35.0      30.02       0.00       0.00      0.000
6:05pm            193          0          0         23       74.6       34.4      30.02       0.00       0.00      0.000
6:10pm            193          0          0         23       74.0       33.9      30.02       0.00       0.00      0.000
6:15pm            193          0          0         24       73.5       34.5      30.02       0.00       0.00      0.000
6:20pm            193          0          0         23       72.8       32.9      30.02       0.00       0.00      0.000
6:25pm            193          0          0         24       72.3       33.5      30.02       0.00       0.00      0.000
6:30pm            193          0          0         24       71.8       33.1      30.03       0.00       0.00      0.000
6:35pm            193          0          0         25       71.5       33.9      30.03       0.00       0.00      0.000
6:40pm            193          0          0         25       71.1       33.5      30.03       0.00       0.00      0.000
6:45pm            193          0          0         25       70.8       33.3      30.03       0.00       0.00      0.000
6:50pm            193          0          0         26       70.4       33.9      30.03       0.00       0.00      0.000
6:55pm            193          0          0         28       70.1       35.5      30.03       0.00       0.00      0.000
7:00pm            193          0          0         27       69.9       34.4      30.04       0.00       0.00      0.000
7:05pm            193          0          0         27       69.6       34.2      30.04       0.00       0.00      0.000
7:10pm            193          0          0         28       69.3       34.8      30.04       0.00       0.00      0.000
7:15pm            193          0          0         28       68.9       34.5      30.04       0.00       0.00      0.000
7:20pm            195          0          0         28       68.6       34.2      30.04       0.00       0.00      0.000
7:25pm            193          0          0         29       68.4       34.9      30.04       0.00       0.00      0.000
7:30pm            193          0          0         29       68.3       34.8      30.04       0.00       0.00      0.000
7:35pm            193          0          0         30       67.9       35.4      30.04       0.00       0.00      0.000
7:40pm            195          0          0         30       67.6       35.1      30.04       0.00       0.00      0.000
7:45pm            193          0          0         30       67.3       34.8      30.05       0.00       0.00      0.000
7:50pm            193          0          0         31       66.9       35.3      30.05       0.00       0.00      0.000
7:55pm            193          0          0         31       66.8       35.2      30.05       0.00       0.00      0.000
8:00pm            193          0          0         30       66.4       34.1      30.05       0.00       0.00      0.000
8:05pm            193          0          0         30       66.3       34.0      30.05       0.00       0.00      0.000
8:10pm            193          0          0         31       66.0       34.5      30.05       0.00       0.00      0.000
8:15pm            193          0          0         31       65.6       34.2      30.04       0.00       0.00      0.000
8:20pm            193          0          0         32       65.5       34.9      30.04       0.00       0.00      0.000
8:25pm            193          0          0         32       65.3       34.7      30.04       0.00       0.00      0.000
8:30pm            193          0          0         33       65.2       35.4      30.04       0.00       0.00      0.000
8:35pm            193          0          0         33       64.8       35.0      30.04       0.00       0.00      0.000
8:40pm            195          0          0         34       64.3       35.4      30.04       0.00       0.00      0.000
8:45pm            193          0          0         34       64.2       35.3      30.04       0.00       0.00      0.000
8:50pm            193          0          0         34       63.9       35.0      30.04       0.00       0.00      0.000
8:55pm            193          0          0         34       63.7       34.8      30.04       0.00       0.00      0.000
9:00pm            195          0          0         33       63.7       34.1      30.04       0.00       0.00      0.000
9:05pm            195          0          0         31       63.9       32.7      30.04       0.00       0.00      0.000
9:10pm            193          0          0         30       63.9       31.9      30.04       0.00       0.00      0.000
9:15pm            195          0          0         31       64.0       32.8      30.02       0.00       0.00      0.000
9:20pm            193          0          0         30       64.2       32.1      30.02       0.00       0.00      0.000
9:25pm            193          0          0         31       64.0       32.8      30.02       0.00       0.00      0.000
9:30pm            193          0          0         30       63.7       31.7      30.02       0.00       0.00      0.000
9:35pm            193          0          0         31       63.4       32.3      30.02       0.00       0.00      0.000
9:40pm            193          0          2         31       63.4       32.3      30.02       0.00       0.00      0.000
9:45pm            113          0          1         28       63.7       30.0      30.03       0.00       0.00      0.000
9:50pm            112          0          0         28       64.3       30.5      30.03       0.00       0.00      0.000
9:55pm            113          0          1         31       64.8       33.5      30.03       0.00       0.00      0.000
10:00pm           113          0          1         28       65.0       31.1      30.02       0.00       0.00      0.000
10:05pm           109          0          1         26       65.2       29.5      30.02       0.00       0.00      0.000
10:10pm            97          0          2         28       65.5       31.6      30.02       0.00       0.00      0.000
10:15pm            89          0          2         27       66.0       31.1      30.02       0.00       0.00      0.000
10:20pm            86          2          3         25       66.3       29.5      30.02       0.00       0.00      0.000
10:25pm            78          0          2         25       66.6       29.7      30.02       0.00       0.00      0.000
10:30pm            66          1          3         24       67.3       29.3      30.02       0.00       0.00      0.000
10:35pm            65          1          3         25       67.6       30.6      30.02       0.00       0.00      0.000
10:40pm            27          1          5         23       67.8       28.7      30.02       0.00       0.00      0.000